Kellys Korner, Washington
Current Conditions -  °F | °C
As of 1:54 PM on Friday 19 Dec 2014 (Local Time) from KOLM Reporting Station
Broken Clouds Broken Clouds  
Wind Chill: 50°   Ceiling: 3700
Heat Index: 50°   Visibility: 10mi
Dew Point: 41°   Wind: 17mph
Humidity: 71%   Direction: 180°S
Pressure: 29.95"   Gusts: 23mph
Location:  46.9679°N, 122.834°W
Report Text: KOLM 192154Z 18015G20KT 10SM SCT024 BKN037 10/05 A2995 RMK AO2 SLP144 T01000050
Loading
Personal Weather Stations






























Interactive Weather Map New forecast layout! Learn more

10-Day Weather Forecast

Advertisements
Track Severe Weather on mobile